Time;durP1;ratioP1;P1;durP2;ratioP2;P2;SDS_P1;SDS_P2;PMS_P1;PMS_P2;Temp;Humidity;BMP_temperature;BMP_pressure;BME280_temperature;BME280_humidity;BME280_pressure;Samples;Min_cycle;Max_cycle;Signal;HPM_P1;HPM_P2
2021/12/30 00:01:16;;;;;;;31.40;8.68;;;;;;;6.34;80.16;101248.23;1838855;78;21470;-65
2021/12/30 00:03:46;;;;;;;31.50;9.78;;;;;;;6.34;80.13;101253.47;1837269;77;21536;-66
2021/12/30 00:06:17;;;;;;;22.70;6.62;;;;;;;6.34;80.27;101247.81;1838706;78;21086;-66
2021/12/30 00:08:46;;;;;;;19.57;6.08;;;;;;;6.37;80.38;101245.59;1838719;78;21486;-66
2021/12/30 00:11:15;;;;;;;19.15;5.53;;;;;;;6.40;80.34;101250.78;1838769;78;21007;-65
2021/12/30 00:13:47;;;;;;;46.13;7.50;;;;;;;6.41;80.26;101251.19;1838873;78;21043;-65
2021/12/30 00:16:18;;;;;;;37.48;8.28;;;;;;;6.43;80.22;101250.72;1838711;78;21042;-66
2021/12/30 00:18:47;;;;;;;29.72;6.17;;;;;;;6.42;80.25;101255.97;1838655;78;21067;-66
2021/12/30 00:21:17;;;;;;;30.05;8.40;;;;;;;6.43;80.21;101255.95;1838755;78;21039;-65
2021/12/30 00:23:45;;;;;;;27.87;8.83;;;;;;;6.42;80.29;101259.89;1838745;78;21038;-65
2021/12/30 00:26:14;;;;;;;17.40;5.90;;;;;;;6.42;80.41;101257.28;1838812;78;21007;-65
2021/12/30 00:28:43;;;;;;;35.75;9.15;;;;;;;6.41;80.49;101259.49;1838614;78;21117;-65
2021/12/30 00:31:12;;;;;;;30.10;8.80;;;;;;;6.43;80.44;101261.19;1838592;78;20999;-65
2021/12/30 00:33:41;;;;;;;27.37;6.65;;;;;;;6.41;80.49;101261.66;1838634;78;21442;-66
2021/12/30 00:36:13;;;;;;;26.70;6.92;;;;;;;6.42;80.57;101255.55;1838609;78;21011;-64
2021/12/30 00:38:44;;;;;;;24.25;5.92;;;;;;;6.41;80.58;101260.80;1838612;78;21039;-62
2021/12/30 00:41:12;;;;;;;31.42;8.83;;;;;;;6.37;80.56;101262.59;1838633;78;21117;-63
2021/12/30 00:43:41;;;;;;;43.42;8.68;;;;;;;6.34;80.58;101267.84;1838505;78;21067;-65
2021/12/30 00:46:10;;;;;;;37.15;8.93;;;;;;;6.31;80.69;101266.16;1840624;76;21085;-64
2021/12/30 00:48:40;;;;;;;28.40;8.58;;;;;;;6.32;80.67;101269.17;1838775;77;21085;-63
2021/12/30 00:51:09;;;;;;;24.35;7.35;;;;;;;6.35;80.62;101265.67;1806373;79;21134;-66
2021/12/30 00:53:37;;;;;;;29.67;7.70;;;;;;;6.36;80.50;101267.38;1838399;78;21130;-66
2021/12/30 00:56:06;;;;;;;26.42;8.10;;;;;;;6.35;80.45;101267.84;1852418;77;21144;-67
2021/12/30 00:58:35;;;;;;;23.60;7.72;;;;;;;6.35;80.51;101274.83;1832345;77;21096;-63
2021/12/30 01:01:05;;;;;;;23.70;8.50;;;;;;;6.32;80.68;101270.94;1838465;78;21456;-65
2021/12/30 01:03:34;;;;;;;25.48;8.18;;;;;;;6.29;80.86;101269.66;1838232;78;21529;-66
2021/12/30 01:06:03;;;;;;;21.80;6.90;;;;;;;6.27;80.92;101270.12;1838386;78;21056;-62
2021/12/30 01:08:33;;;;;;;19.48;6.83;;;;;;;6.29;80.81;101272.27;1838510;78;21059;-61
2021/12/30 01:11:06;;;;;;;24.72;7.45;;;;;;;6.31;80.72;101269.22;1838185;78;21679;-62
2021/12/30 01:13:37;;;;;;;27.58;9.08;;;;;;;6.34;80.67;101270.47;1838130;78;21056;-63
2021/12/30 01:16:05;;;;;;;25.17;7.15;;;;;;;6.36;80.71;101268.69;1837810;77;21077;-62
2021/12/30 01:18:55;;;;;;;34.00;9.33;;;;;;;6.39;80.65;101267.35;1806593;79;21076;-63
2021/12/30 01:21:13;;;;;;;40.28;10.35;;;;;;;6.41;80.53;101264.27;1835200;77;21127;-63
2021/12/30 01:23:42;;;;;;;33.58;10.10;;;;;;;6.43;80.38;101260.33;1838259;78;21076;-62
2021/12/30 01:26:11;;;;;;;22.48;7.72;;;;;;;6.42;80.26;101262.09;1806627;79;21581;-62
2021/12/30 01:28:41;;;;;;;19.60;7.12;;;;;;;6.40;80.18;101262.56;1838386;78;21073;-60
2021/12/30 01:31:11;;;;;;;18.87;6.62;;;;;;;6.34;80.13;101263.50;1838298;78;21087;-62
2021/12/30 01:33:39;;;;;;;21.52;6.30;;;;;;;6.26;80.20;101265.80;1806622;78;21202;-62
2021/12/30 01:36:08;;;;;;;23.00;7.22;;;;;;;6.22;80.23;101262.80;1838356;78;21092;-62
2021/12/30 01:38:37;;;;;;;19.52;6.78;;;;;;;6.21;80.21;101259.75;1838471;77;21452;-62
2021/12/30 01:41:08;;;;;;;16.07;5.92;;;;;;;6.21;80.22;101263.22;1806645;79;21566;-61
2021/12/30 01:43:38;;;;;;;20.92;6.00;;;;;;;6.19;80.27;101265.84;1838261;78;21045;-61
2021/12/30 01:46:09;;;;;;;18.23;5.70;;;;;;;6.15;80.42;101260.23;1832556;77;21148;-62
2021/12/30 01:48:38;;;;;;;16.20;5.67;;;;;;;6.16;80.45;101265.02;1852523;77;21163;-61
2021/12/30 01:51:09;;;;;;;17.52;6.28;;;;;;;6.16;80.52;101261.09;1852531;77;21060;-62
2021/12/30 01:53:38;;;;;;;16.73;7.58;;;;;;;6.18;80.44;101261.97;1860299;77;21024;-61
2021/12/30 01:56:08;;;;;;;18.57;6.50;;;;;;;6.18;80.36;101261.97;1860140;77;21084;-61
2021/12/30 01:58:37;;;;;;;15.88;5.87;;;;;;;6.13;80.33;101264.63;1860162;77;21163;-61
2021/12/30 02:01:06;;;;;;;23.32;5.85;;;;;;;6.05;80.55;101266.48;1860191;77;21099;-60
2021/12/30 02:03:35;;;;;;;19.65;6.65;;;;;;;6.00;80.71;101261.74;1860134;77;21126;-59
2021/12/30 02:06:03;;;;;;;23.27;7.03;;;;;;;5.99;80.72;101260.89;1860188;77;21556;-59
2021/12/30 02:08:32;;;;;;;23.35;6.97;;;;;;;6.00;80.68;101260.44;1860299;77;21544;-60
2021/12/30 02:11:02;;;;;;;30.00;7.95;;;;;;;6.01;80.66;101258.22;1860401;77;21037;-60
2021/12/30 02:13:31;;;;;;;27.80;9.90;;;;;;;6.06;80.59;101264.27;1860162;77;21577;-60
2021/12/30 02:16:02;;;;;;;25.62;6.30;;;;;;;6.07;80.50;101255.98;1860296;77;21103;-62
2021/12/30 02:18:31;;;;;;;27.93;8.90;;;;;;;6.03;80.56;101263.02;1860372;77;21060;-62
2021/12/30 02:21:02;;;;;;;32.40;7.97;;;;;;;5.88;80.96;101261.84;1860403;77;21129;-60
2021/12/30 02:23:34;;;;;;;34.45;9.20;;;;;;;5.85;81.01;101260.59;1860288;77;21115;-61
2021/12/30 02:26:09;;;;;;;34.88;8.33;;;;;;;5.84;81.04;101257.09;1860206;77;21126;-61
2021/12/30 02:28:38;;;;;;;56.37;9.73;;;;;;;5.86;80.91;101255.77;1860369;77;21075;-61
2021/12/30 02:31:10;;;;;;;27.75;7.67;;;;;;;5.83;80.95;101259.30;1860304;77;21553;-62
2021/12/30 02:33:40;;;;;;;35.03;9.33;;;;;;;5.83;80.97;101260.59;1860327;77;21086;-62
2021/12/30 02:36:09;;;;;;;34.40;10.20;;;;;;;5.86;80.88;101257.08;1860275;77;21470;-62
2021/12/30 02:38:43;;;;;;;43.70;10.03;;;;;;;5.83;80.85;101255.38;1860296;77;21111;-62
2021/12/30 02:41:09;;;;;;;46.20;10.78;;;;;;;5.76;81.01;101253.26;1859674;77;21060;-61
2021/12/30 02:43:37;;;;;;;41.80;10.45;;;;;;;5.73;81.07;101255.89;1860319;77;21153;-60
2021/12/30 02:46:06;;;;;;;34.43;8.75;;;;;;;5.72;81.10;101255.48;1860223;77;21145;-60
2021/12/30 02:48:37;;;;;;;35.92;9.43;;;;;;;5.76;81.09;101263.70;1860414;77;21193;-60
2021/12/30 02:51:08;;;;;;;44.30;9.00;;;;;;;5.75;81.08;101261.96;1860227;77;21122;-60
2021/12/30 02:53:37;;;;;;;71.55;10.18;;;;;;;5.69;81.14;101263.34;1860318;77;21047;-60
2021/12/30 02:56:08;;;;;;;59.88;10.93;;;;;;;5.64;81.22;101261.66;1860300;77;21560;-60
2021/12/30 02:58:37;;;;;;;60.98;10.60;;;;;;;5.61;81.34;101258.66;1860273;77;21126;-61
2021/12/30 03:01:20;;;;;;;64.20;10.30;;;;;;;5.61;81.43;101268.66;1860289;77;21079;-60
2021/12/30 03:03:49;;;;;;;50.75;10.23;;;;;;;5.63;81.44;101264.73;1859473;77;21153;-60
2021/12/30 03:06:18;;;;;;;49.67;10.35;;;;;;;5.62;81.43;101269.52;1860327;77;21142;-60
2021/12/30 03:08:49;;;;;;;69.03;9.88;;;;;;;5.66;81.50;101267.29;1860284;77;21071;-61
2021/12/30 03:11:20;;;;;;;74.53;13.03;;;;;;;5.72;81.46;101271.16;1860326;77;21556;-61
2021/12/30 03:13:50;;;;;;;53.92;10.03;;;;;;;5.74;81.35;101273.77;1860214;77;21576;-62
2021/12/30 03:16:24;;;;;;;52.25;10.53;;;;;;;5.74;81.41;101274.63;1860262;77;21463;-61
2021/12/30 03:18:53;;;;;;;49.80;10.45;;;;;;;5.75;81.41;101276.34;1858982;77;21601;-61
2021/12/30 03:21:24;;;;;;;76.17;12.70;;;;;;;5.82;81.28;101277.60;1860292;77;21076;-62
2021/12/30 03:23:54;;;;;;;54.88;10.68;;;;;;;5.86;81.14;101280.59;1860389;77;21056;-61
2021/12/30 03:26:23;;;;;;;66.47;11.68;;;;;;;5.88;80.96;101281.44;1860185;77;21126;-61
2021/12/30 03:28:52;;;;;;;62.17;11.20;;;;;;;5.87;80.83;101282.34;1860272;77;21169;-61
2021/12/30 03:31:23;;;;;;;45.28;11.22;;;;;;;5.88;80.76;101284.05;1860292;77;21142;-63
2021/12/30 03:33:52;;;;;;;49.85;11.73;;;;;;;5.89;80.76;101287.11;1860276;77;21096;-62
2021/12/30 03:36:21;;;;;;;48.15;10.68;;;;;;;5.89;80.76;101281.43;1860334;77;21036;-63
2021/12/30 03:38:53;;;;;;;31.50;8.98;;;;;;;5.88;80.89;101284.05;1860141;77;21502;-63
2021/12/30 03:41:24;;;;;;;69.72;10.32;;;;;;;5.86;80.80;101285.83;1860378;77;21056;-63
2021/12/30 03:43:54;;;;;;;44.35;10.50;;;;;;;5.77;80.79;101285.05;1860278;77;21059;-63
2021/12/30 03:46:23;;;;;;;82.70;11.22;;;;;;;5.69;80.88;101292.09;1859985;77;21516;-62
2021/12/30 03:48:52;;;;;;;56.23;10.60;;;;;;;5.62;81.00;101289.11;1859363;77;21090;-61
2021/12/30 03:51:24;;;;;;;43.52;10.03;;;;;;;5.63;81.15;101289.55;1857399;77;21078;-61
2021/12/30 03:53:55;;;;;;;39.78;11.15;;;;;;;5.57;81.23;101289.59;1847000;78;21071;-61
2021/12/30 03:56:27;;;;;;;46.18;10.15;;;;;;;5.57;81.35;101292.20;1846902;78;21027;-61
2021/12/30 03:58:55;;;;;;;35.63;9.85;;;;;;;5.52;81.51;101292.70;1846880;78;21099;-61
2021/12/30 04:01:27;;;;;;;47.43;9.03;;;;;;;5.57;81.42;101296.11;1847009;78;21083;-61
2021/12/30 04:03:57;;;;;;;73.45;11.70;;;;;;;5.59;81.23;101297.00;1846772;78;21050;-62
2021/12/30 04:06:27;;;;;;;38.67;9.73;;;;;;;5.59;81.07;101306.14;1846846;78;21149;-61
2021/12/30 04:09:00;;;;;;;31.87;9.73;;;;;;;5.60;81.06;101305.23;1846850;78;21126;-62
2021/12/30 04:11:35;;;;;;;30.13;9.60;;;;;;;5.59;81.08;101310.06;1847154;78;21446;-62
2021/12/30 04:14:08;;;;;;;40.92;10.15;;;;;;;5.60;80.99;101313.08;1846873;78;21125;-61
2021/12/30 04:16:36;;;;;;;61.48;14.20;;;;;;;5.62;80.88;101312.62;1846696;78;21087;-62
2021/12/30 04:19:06;;;;;;;33.67;9.58;;;;;;;5.61;80.83;101316.13;1846861;78;21554;-61
2021/12/30 04:21:35;;;;;;;38.40;10.18;;;;;;;5.60;80.95;101318.30;1846842;78;21129;-63
2021/12/30 04:24:05;;;;;;;72.95;12.68;;;;;;;5.57;80.92;101317.91;1846929;78;21129;-62
2021/12/30 04:26:34;;;;;;;100.67;13.70;;;;;;;5.56;80.93;101320.52;1846947;78;21157;-60
2021/12/30 04:29:04;;;;;;;156.32;15.65;;;;;;;5.53;81.10;101320.12;1846838;78;21571;-60
2021/12/30 04:31:33;;;;;;;54.40;12.88;;;;;;;5.50;81.28;101314.91;1846884;78;21091;-60
2021/12/30 04:34:02;;;;;;;70.03;13.10;;;;;;;5.46;81.56;101318.44;1847095;78;21055;-60
2021/12/30 04:36:31;;;;;;;78.30;13.98;;;;;;;5.47;81.68;101317.99;1846986;78;21090;-60
2021/12/30 04:39:00;;;;;;;43.75;10.85;;;;;;;5.46;81.79;101316.25;1846972;78;21099;-59
2021/12/30 04:41:29;;;;;;;74.00;12.23;;;;;;;5.51;81.84;101318.39;1846757;78;21070;-61
2021/12/30 04:43:58;;;;;;;50.92;13.18;;;;;;;5.49;81.75;101323.62;1847020;78;21027;-60
2021/12/30 04:46:26;;;;;;;67.80;13.00;;;;;;;5.44;81.81;101323.23;1847140;78;21449;-59
2021/12/30 04:48:55;;;;;;;81.45;12.98;;;;;;;5.47;81.77;101325.83;1859694;77;21062;-60
2021/12/30 04:51:24;;;;;;;93.35;14.13;;;;;;;5.50;81.68;101335.81;1862988;77;21015;-61
2021/12/30 04:53:53;;;;;;;69.35;12.53;;;;;;;5.46;81.71;101329.30;1837041;78;21062;-60
2021/12/30 04:56:21;;;;;;;45.83;11.55;;;;;;;5.39;81.75;101335.89;1837123;78;21113;-59
2021/12/30 04:58:51;;;;;;;92.30;13.50;;;;;;;5.37;81.83;101332.44;1837101;78;21133;-60
2021/12/30 05:01:21;;;;;;;87.78;14.68;;;;;;;5.39;81.80;101334.59;1837102;78;21050;-60
2021/12/30 05:03:49;;;;;;;59.42;11.20;;;;;;;5.41;81.75;101339.36;1837151;78;21046;-59
2021/12/30 05:06:18;;;;;;;78.47;13.53;;;;;;;5.47;81.59;101343.66;1837300;77;21039;-60
2021/12/30 05:08:47;;;;;;;70.70;12.53;;;;;;;5.46;81.49;101344.98;1837081;78;21019;-59
2021/12/30 05:11:16;;;;;;;66.20;12.43;;;;;;;5.40;81.56;101347.20;1837225;78;21090;-59
2021/12/30 05:13:44;;;;;;;49.48;12.70;;;;;;;5.38;81.47;101358.96;1837114;78;21058;-60
2021/12/30 05:16:15;;;;;;;52.27;12.55;;;;;;;5.37;81.41;101361.61;1837174;78;21139;-59
2021/12/30 05:18:43;;;;;;;63.28;12.82;;;;;;;5.33;81.45;101359.46;1837074;78;21140;-60
2021/12/30 05:21:12;;;;;;;82.42;14.87;;;;;;;5.38;81.35;101368.09;1837020;78;21098;-60
2021/12/30 05:23:41;;;;;;;66.20;15.15;;;;;;;5.40;81.46;101374.20;1837297;77;21066;-61
2021/12/30 05:26:09;;;;;;;46.68;13.05;;;;;;;5.43;81.50;101375.06;1837151;77;21062;-62
2021/12/30 05:28:38;;;;;;;52.90;12.18;;;;;;;5.44;81.29;101380.28;1837324;78;21058;-62
2021/12/30 05:31:08;;;;;;;49.65;12.63;;;;;;;5.45;81.13;101386.36;1837124;78;21062;-61
2021/12/30 05:33:37;;;;;;;49.05;11.63;;;;;;;5.37;81.20;101385.12;1837004;78;21492;-60
2021/12/30 05:36:06;;;;;;;54.85;12.63;;;;;;;5.32;81.35;101389.50;1837112;77;21120;-61
2021/12/30 05:38:35;;;;;;;91.90;15.28;;;;;;;5.33;81.37;101397.33;1837092;78;21031;-60
2021/12/30 05:41:05;;;;;;;61.35;13.98;;;;;;;5.33;81.45;101401.66;1837186;78;21442;-60
2021/12/30 05:43:34;;;;;;;75.00;20.32;;;;;;;5.33;81.58;101400.35;1837004;78;21489;-61
2021/12/30 05:46:03;;;;;;;69.95;15.32;;;;;;;5.39;81.53;101402.95;1837140;77;21082;-61
2021/12/30 05:48:32;;;;;;;68.75;14.35;;;;;;;5.47;81.36;101406.80;1840179;77;21501;-61
2021/12/30 05:51:02;;;;;;;68.50;14.60;;;;;;;5.51;81.23;101409.81;1857354;76;21082;-60
2021/12/30 05:53:31;;;;;;;85.65;13.50;;;;;;;5.56;81.02;101416.73;1877586;76;21050;-61
2021/12/30 05:56:00;;;;;;;83.35;13.40;;;;;;;5.59;81.01;101418.48;1877579;76;21065;-62
2021/12/30 05:58:29;;;;;;;76.47;14.15;;;;;;;5.61;81.04;101423.25;1877438;76;21093;-61
2021/12/30 06:00:57;;;;;;;35.63;10.35;;;;;;;5.62;80.96;101424.96;1877584;76;21473;-61
2021/12/30 06:03:26;;;;;;;59.10;13.40;;;;;;;5.59;81.00;101426.31;1877686;76;21554;-60
2021/12/30 06:05:55;;;;;;;79.27;14.15;;;;;;;5.61;80.95;101431.08;1877672;76;21062;-62
2021/12/30 06:08:23;;;;;;;52.60;14.25;;;;;;;5.63;80.89;101435.86;1875790;76;21026;-63
2021/12/30 06:10:52;;;;;;;59.35;14.98;;;;;;;5.64;80.86;101441.48;1842521;78;21117;-67
2021/12/30 06:13:21;;;;;;;65.67;14.75;;;;;;;5.65;80.81;101447.16;1875488;76;21051;-67
2021/12/30 06:15:51;;;;;;;85.87;17.25;;;;;;;5.66;80.76;101444.95;1842491;78;21089;-66
2021/12/30 06:18:19;;;;;;;72.45;16.73;;;;;;;5.66;80.79;101454.09;1875501;76;21128;-66
2021/12/30 06:20:50;;;;;;;67.72;17.25;;;;;;;5.61;80.91;101452.84;1864845;76;21070;-63
2021/12/30 06:23:19;;;;;;;78.62;17.82;;;;;;;5.62;81.04;101456.31;1842479;78;21120;-64
2021/12/30 06:25:47;;;;;;;77.42;20.23;;;;;;;5.66;80.97;101461.94;1842361;78;21058;-62
2021/12/30 06:28:16;;;;;;;72.32;18.32;;;;;;;5.63;81.11;101461.98;1868583;76;21131;-64
2021/12/30 06:30:45;;;;;;;92.62;21.15;;;;;;;5.62;81.26;101457.62;1842608;78;21076;-65
2021/12/30 06:33:14;;;;;;;65.28;19.92;;;;;;;5.61;81.54;101463.74;1875445;76;21056;-62
2021/12/30 06:35:42;;;;;;;69.62;17.82;;;;;;;5.59;81.77;101466.81;1842515;77;21123;-62
2021/12/30 06:38:13;;;;;;;49.23;14.70;;;;;;;5.58;81.86;101470.28;1875430;76;21060;-62
2021/12/30 06:40:41;;;;;;;54.50;17.10;;;;;;;5.59;81.57;101481.17;1842572;77;21089;-61
2021/12/30 06:43:10;;;;;;;52.05;15.10;;;;;;;5.60;81.25;101478.53;1875421;76;21048;-62
2021/12/30 06:45:38;;;;;;;42.23;14.63;;;;;;;5.57;81.04;101473.34;1842484;78;21089;-61
2021/12/30 06:48:07;;;;;;;44.63;16.07;;;;;;;5.58;81.16;101476.81;1875679;76;21072;-61
2021/12/30 06:50:36;;;;;;;35.10;8.53;;;;;;;5.61;81.04;101480.72;1831849;77;21084;-60
2021/12/30 06:53:05;;;;;;;34.27;8.50;;;;;;;5.63;80.96;101480.27;1892594;76;21117;-60
2021/12/30 06:55:33;;;;;;;28.87;9.63;;;;;;;5.64;80.80;101475.45;1892625;76;21026;-61
2021/12/30 06:58:02;;;;;;;29.37;7.72;;;;;;;5.66;80.70;101476.31;1892934;76;21042;-62
2021/12/30 07:00:31;;;;;;;35.00;10.95;;;;;;;5.67;80.54;101474.14;1892667;76;21054;-60
2021/12/30 07:03:00;;;;;;;35.00;12.37;;;;;;;5.70;80.44;101476.74;1892639;76;21050;-60
2021/12/30 07:05:28;;;;;;;29.60;9.00;;;;;;;5.71;80.37;101474.98;1892721;76;21042;-60
2021/12/30 07:07:57;;;;;;;42.17;8.93;;;;;;;5.73;80.33;101476.70;1892642;76;21519;-61
2021/12/30 07:10:27;;;;;;;29.00;8.35;;;;;;;5.71;80.28;101473.23;1892770;76;21465;-59
2021/12/30 07:12:56;;;;;;;51.68;10.15;;;;;;;5.69;80.55;101472.38;1892874;76;21527;-60
2021/12/30 07:15:26;;;;;;;44.40;11.22;;;;;;;5.65;80.76;101473.28;1892676;76;21515;-60
2021/12/30 07:18:14;;;;;;;34.53;10.75;;;;;;;5.70;80.82;101474.13;1974779;73;21187;-60
2021/12/30 07:20:43;;;;;;;27.75;8.75;;;;;;;5.69;80.74;101476.75;1974956;71;21066;-60
2021/12/30 07:23:11;;;;;;;21.73;8.60;;;;;;;5.68;80.81;101471.97;1974876;72;21394;-60
2021/12/30 07:25:40;;;;;;;33.98;9.03;;;;;;;5.74;80.67;101475.83;1974855;73;21108;-59
2021/12/30 07:28:09;;;;;;;34.85;10.15;;;;;;;5.77;80.57;101473.20;1974905;71;21141;-60
2021/12/30 07:30:38;;;;;;;64.03;12.33;;;;;;;5.79;80.37;101476.67;1974963;73;21179;-60
2021/12/30 07:33:07;;;;;;;41.63;10.78;;;;;;;5.79;80.26;101474.06;1974749;73;21442;-60
2021/12/30 07:35:37;;;;;;;26.23;9.68;;;;;;;5.87;80.28;101479.67;1974734;73;21566;-60
2021/12/30 07:38:06;;;;;;;35.95;12.00;;;;;;;5.87;80.31;101476.61;1974718;73;21027;-61
2021/12/30 07:40:35;;;;;;;26.82;9.25;;;;;;;5.82;80.17;101476.22;1974701;73;21109;-61
2021/12/30 07:43:03;;;;;;;19.35;6.85;;;;;;;5.70;80.14;101481.97;1974663;73;20995;-60
2021/12/30 07:45:32;;;;;;;30.80;8.78;;;;;;;5.64;80.23;101485.91;1974719;73;21019;-60
2021/12/30 07:48:01;;;;;;;46.65;9.20;;;;;;;5.64;80.15;101483.30;1974741;73;21027;-60
2021/12/30 07:50:30;;;;;;;23.35;6.83;;;;;;;5.62;80.25;101479.83;1974973;73;21465;-60
2021/12/30 07:52:59;;;;;;;24.23;8.95;;;;;;;5.66;80.44;101480.23;1974732;72;21602;-60
2021/12/30 07:55:28;;;;;;;31.80;10.13;;;;;;;5.68;80.60;101478.92;1974637;73;21515;-60
2021/12/30 07:57:58;;;;;;;26.00;8.28;;;;;;;5.76;80.57;101474.52;1974758;73;21446;-60
2021/12/30 08:00:27;;;;;;;31.82;19.07;;;;;;;5.79;80.56;101481.91;1974686;73;20995;-60
2021/12/30 08:02:56;;;;;;;31.37;9.15;;;;;;;5.86;80.53;101480.54;1974724;73;21394;-60
2021/12/30 08:05:26;;;;;;;22.15;8.20;;;;;;;5.96;80.43;101476.57;1974673;73;21075;-60
2021/12/30 08:07:54;;;;;;;24.47;7.62;;;;;;;6.09;80.26;101474.72;1974583;72;21043;-60
2021/12/30 08:10:23;;;;;;;26.00;9.33;;;;;;;6.09;80.21;101472.55;1974740;71;21018;-62
2021/12/30 08:12:54;;;;;;;20.50;6.90;;;;;;;6.10;80.23;101462.05;1974719;73;21479;-61
2021/12/30 08:15:24;;;;;;;25.02;8.23;;;;;;;6.13;80.12;101464.66;1974765;73;21015;-60
2021/12/30 08:17:54;;;;;;;23.92;7.62;;;;;;;6.12;80.41;101460.33;1966518;73;21125;-60
2021/12/30 08:20:23;;;;;;;20.92;8.33;;;;;;;6.24;80.37;101462.39;1961583;73;21102;-61
2021/12/30 08:22:52;;;;;;;25.23;7.50;;;;;;;6.36;80.19;101457.91;1961700;73;20999;-61
2021/12/30 08:25:22;;;;;;;24.65;9.28;;;;;;;6.33;79.84;101459.69;1961564;73;21129;-61
2021/12/30 08:27:51;;;;;;;24.18;8.03;;;;;;;6.33;79.80;101455.77;1961619;73;21563;-61
2021/12/30 08:30:21;;;;;;;25.75;8.45;;;;;;;6.42;79.60;101455.67;1961559;73;21517;-61
2021/12/30 08:32:50;;;;;;;21.93;7.95;;;;;;;6.47;79.24;101459.08;1961496;72;21513;-62
2021/12/30 08:35:23;;;;;;;21.35;8.60;;;;;;;6.52;79.19;101448.13;1961563;73;20999;-61
2021/12/30 08:37:54;;;;;;;22.10;7.87;;;;;;;6.63;79.09;101450.64;1961856;71;21015;-61
2021/12/30 08:40:24;;;;;;;20.05;6.60;;;;;;;6.69;79.11;101446.63;1961528;73;20999;-61
2021/12/30 08:42:53;;;;;;;13.60;5.15;;;;;;;6.78;79.15;101449.59;1961599;73;21531;-61
2021/12/30 08:45:22;;;;;;;12.25;4.92;;;;;;;6.78;78.46;101452.20;1961507;73;21019;-62
2021/12/30 08:47:50;;;;;;;14.15;6.80;;;;;;;6.78;78.73;101446.97;1961819;73;21560;-61
2021/12/30 08:50:19;;;;;;;16.70;7.25;;;;;;;6.91;78.60;101453.78;1961814;73;21152;-60
2021/12/30 08:52:48;;;;;;;15.60;6.87;;;;;;;6.98;78.48;101443.25;1961555;71;21116;-61
2021/12/30 08:55:18;;;;;;;17.77;6.50;;;;;;;7.08;78.21;101447.47;1961726;73;21415;-61
2021/12/30 08:57:49;;;;;;;17.52;6.25;;;;;;;7.05;77.92;101447.53;1961527;72;21124;-63
2021/12/30 09:00:28;;;;;;;17.87;7.03;;;;;;;6.98;77.45;101443.25;1961589;73;21093;-62
2021/12/30 09:02:56;;;;;;;16.80;6.25;;;;;;;7.02;77.47;101444.94;1960470;71;21054;-62
2021/12/30 09:05:25;;;;;;;14.93;5.95;;;;;;;7.15;77.41;101442.12;1961596;73;21077;-62
2021/12/30 09:07:55;;;;;;;15.58;6.67;;;;;;;7.21;77.12;101438.58;1961568;73;21023;-62
2021/12/30 09:10:23;;;;;;;12.88;4.60;;;;;;;7.25;77.03;101429.78;1961452;72;21551;-62
2021/12/30 09:12:55;;;;;;;20.97;7.17;;;;;;;7.17;76.88;101429.01;1961579;73;21083;-61
2021/12/30 09:15:34;;;;;;;14.03;6.15;;;;;;;7.09;76.92;101430.88;1961667;73;20999;-61
2021/12/30 09:17:58;;;;;;;17.05;5.78;;;;;;;7.07;76.93;101428.73;1959366;72;21522;-61
2021/12/30 09:20:27;;;;;;;14.33;5.42;;;;;;;7.03;76.95;101424.42;1961532;72;21478;-62
2021/12/30 09:22:57;;;;;;;14.15;5.35;;;;;;;6.88;77.05;101426.36;1961470;72;21019;-63
2021/12/30 09:25:26;;;;;;;15.83;5.55;;;;;;;6.81;77.12;101419.46;1961638;73;21011;-61
2021/12/30 09:27:56;;;;;;;16.35;6.85;;;;;;;6.83;77.15;101426.84;1961703;73;21183;-61
2021/12/30 09:30:27;;;;;;;15.13;6.62;;;;;;;6.96;77.09;101422.32;1961658;73;21066;-62
2021/12/30 09:32:59;;;;;;;13.48;5.65;;;;;;;7.21;76.90;101419.36;1961685;73;21096;-62
2021/12/30 09:35:28;;;;;;;16.17;6.03;;;;;;;7.41;76.78;101416.45;1961596;73;21023;-64
2021/12/30 09:37:57;;;;;;;12.55;4.78;;;;;;;7.45;76.68;101413.78;1961778;73;21520;-61
2021/12/30 09:40:27;;;;;;;14.15;5.83;;;;;;;7.48;76.63;101412.84;1961539;73;21520;-64
2021/12/30 09:43:03;;;;;;;13.85;5.53;;;;;;;7.41;76.53;101411.20;1961657;73;21026;-62
2021/12/30 09:45:36;;;;;;;13.83;5.83;;;;;;;7.44;76.49;101411.17;1961662;73;21097;-62
2021/12/30 09:48:07;;;;;;;15.57;5.67;;;;;;;7.48;76.37;101414.16;1961793;73;21387;-62
2021/12/30 09:50:38;;;;;;;16.23;6.17;;;;;;;7.48;76.22;101407.61;1961521;73;21020;-62
2021/12/30 09:53:08;;;;;;;16.65;5.80;;;;;;;7.57;76.22;101409.23;1961596;73;20995;-62
2021/12/30 09:55:38;;;;;;;17.50;6.45;;;;;;;7.64;76.20;101406.94;1961568;73;21051;-61
2021/12/30 09:58:07;;;;;;;18.57;7.10;;;;;;;7.74;75.98;101400.18;1961522;73;21411;-62
2021/12/30 10:00:37;;;;;;;15.15;6.20;;;;;;;7.85;75.72;101395.21;1961426;73;21661;-61
2021/12/30 10:03:07;;;;;;;15.80;6.03;;;;;;;7.82;75.83;101396.56;1961513;73;21124;-62
2021/12/30 10:05:38;;;;;;;15.35;6.58;;;;;;;7.90;75.87;101399.94;1961479;71;21078;-62
2021/12/30 10:08:24;;;;;;;17.30;7.72;;;;;;;7.98;75.79;101392.78;1961524;72;21097;-61
2021/12/30 10:10:58;;;;;;;15.10;7.05;;;;;;;8.03;75.74;101395.34;1961370;72;21151;-62
2021/12/30 10:13:32;;;;;;;17.17;8.13;;;;;;;7.99;75.52;101398.47;1961605;72;21108;-61
2021/12/30 10:16:07;;;;;;;15.53;6.42;;;;;;;7.94;75.45;101391.12;1961535;73;21047;-61
2021/12/30 10:18:48;;;;;;;13.28;5.70;;;;;;;7.97;75.42;101396.32;1961578;72;21501;-61
2021/12/30 10:21:19;;;;;;;15.60;7.42;;;;;;;8.04;75.38;101394.01;1962972;73;21109;-61
2021/12/30 10:23:51;;;;;;;15.63;7.28;;;;;;;8.08;75.29;101396.98;1962852;73;21454;-61
2021/12/30 10:26:20;;;;;;;17.40;8.05;;;;;;;8.21;74.93;101392.38;1962810;73;21099;-61
2021/12/30 10:28:54;;;;;;;20.72;8.98;;;;;;;8.40;74.57;101388.09;1962975;73;21520;-61
2021/12/30 10:31:26;;;;;;;25.20;9.83;;;;;;;8.80;73.68;101393.88;1962663;73;21562;-60
2021/12/30 10:33:59;;;;;;;26.80;9.67;;;;;;;8.99;72.93;101397.83;1963181;73;21039;-60
2021/12/30 10:36:31;;;;;;;37.33;13.05;;;;;;;9.11;72.74;101390.56;1962992;73;21088;-61
2021/12/30 10:39:29;;;;;;;36.73;12.98;;;;;;;8.91;72.81;101396.25;1963033;73;21081;-61
2021/12/30 10:42:10;;;;;;;43.17;13.93;;;;;;;8.65;73.19;101396.35;1980309;72;21538;-61
2021/12/30 10:44:59;;;;;;;33.00;13.13;;;;;;;8.49;73.48;101392.73;1965408;72;21090;-61
2021/12/30 10:47:33;;;;;;;43.02;18.20;;;;;;;8.42;73.71;101391.12;1962954;73;21051;-61
2021/12/30 10:50:05;;;;;;;38.15;16.02;;;;;;;8.33;73.88;101391.73;1962993;73;21484;-61
2021/12/30 10:52:34;;;;;;;61.35;25.57;;;;;;;8.24;73.99;101383.58;1962847;73;21055;-61
2021/12/30 10:55:12;;;;;;;36.68;17.57;;;;;;;8.06;74.18;101392.22;1962970;73;21512;-61
2021/12/30 10:57:41;;;;;;;31.90;14.90;;;;;;;7.97;74.44;101400.67;1963017;73;21023;-61
2021/12/30 11:00:12;;;;;;;41.58;17.65;;;;;;;7.88;74.54;101399.10;1962970;73;21402;-61
2021/12/30 11:02:41;;;;;;;39.40;18.15;;;;;;;7.82;74.82;101399.19;1961756;73;21465;-61
2021/12/30 11:05:12;;;;;;;36.77;15.95;;;;;;;7.78;74.87;101397.06;1962999;73;21165;-61
2021/12/30 11:07:51;;;;;;;35.60;16.12;;;;;;;7.72;74.91;101399.34;1962984;73;21031;-61
2021/12/30 11:10:31;;;;;;;44.23;16.55;;;;;;;7.73;74.98;101401.54;1962874;73;21019;-62
2021/12/30 11:13:11;;;;;;;29.37;13.32;;;;;;;7.69;75.00;101403.34;1962951;73;20999;-62
2021/12/30 11:15:40;;;;;;;38.10;14.68;;;;;;;7.64;75.27;101400.38;1963050;73;21019;-61
2021/12/30 11:18:19;;;;;;;36.88;14.90;;;;;;;7.62;75.41;101400.41;1962920;73;21031;-61
2021/12/30 11:20:49;;;;;;;32.78;12.95;;;;;;;7.60;75.41;101404.80;1972035;72;21124;-61
2021/12/30 11:23:18;;;;;;;29.60;11.73;;;;;;;7.57;75.58;101402.67;1972298;73;21015;-61
2021/12/30 11:25:47;;;;;;;31.05;13.80;;;;;;;7.47;75.92;101398.89;1972273;73;21434;-61
2021/12/30 11:28:16;;;;;;;26.55;10.82;;;;;;;7.53;75.97;101396.62;1972361;73;21473;-61
2021/12/30 11:30:45;;;;;;;29.25;11.35;;;;;;;7.56;75.92;101399.17;1972338;73;21453;-61
2021/12/30 11:33:15;;;;;;;27.40;9.58;;;;;;;7.58;75.76;101396.11;1972380;72;21515;-61
2021/12/30 11:35:44;;;;;;;25.48;10.65;;;;;;;7.56;75.77;101395.69;1972391;73;21043;-61